sensor_id;sensor_type;location;lat;lon;timestamp;temperature;humidity
76172;DHT22;64929;51.178;4.138;2023-04-12T00:01:56;9.40;91.40
76172;DHT22;64929;51.178;4.138;2023-04-12T00:04:21;9.30;91.50
76172;DHT22;64929;51.178;4.138;2023-04-12T00:06:51;9.30;91.80
76172;DHT22;64929;51.178;4.138;2023-04-12T00:09:19;9.40;91.40
76172;DHT22;64929;51.178;4.138;2023-04-12T00:11:45;9.40;91.00
76172;DHT22;64929;51.178;4.138;2023-04-12T00:14:10;9.30;91.10
76172;DHT22;64929;51.178;4.138;2023-04-12T00:16:36;9.10;91.70
76172;DHT22;64929;51.178;4.138;2023-04-12T00:19:03;9.10;92.00
76172;DHT22;64929;51.178;4.138;2023-04-12T00:21:29;9.10;92.00
76172;DHT22;64929;51.178;4.138;2023-04-12T00:23:55;9.10;91.90
76172;DHT22;64929;51.178;4.138;2023-04-12T00:26:21;9.20;92.20
76172;DHT22;64929;51.178;4.138;2023-04-12T00:28:47;9.20;91.90
76172;DHT22;64929;51.178;4.138;2023-04-12T00:31:13;9.20;91.80
76172;DHT22;64929;51.178;4.138;2023-04-12T00:33:38;9.10;91.90
76172;DHT22;64929;51.178;4.138;2023-04-12T00:36:04;9.10;92.20
76172;DHT22;64929;51.178;4.138;2023-04-12T00:38:30;9.20;91.90
76172;DHT22;64929;51.178;4.138;2023-04-12T00:40:56;9.20;92.10
76172;DHT22;64929;51.178;4.138;2023-04-12T00:43:21;9.30;92.00
76172;DHT22;64929;51.178;4.138;2023-04-12T00:45:48;9.20;91.70
76172;DHT22;64929;51.178;4.138;2023-04-12T00:48:14;9.20;92.10
76172;DHT22;64929;51.178;4.138;2023-04-12T00:50:41;9.30;92.10
76172;DHT22;64929;51.178;4.138;2023-04-12T00:53:10;9.30;91.80
76172;DHT22;64929;51.178;4.138;2023-04-12T00:55:39;9.20;91.80
76172;DHT22;64929;51.178;4.138;2023-04-12T00:58:05;9.20;91.80
76172;DHT22;64929;51.178;4.138;2023-04-12T01:00:33;9.30;92.00
76172;DHT22;64929;51.178;4.138;2023-04-12T01:02:58;9.30;92.00
76172;DHT22;64929;51.178;4.138;2023-04-12T01:05:27;9.40;91.40
76172;DHT22;64929;51.178;4.138;2023-04-12T01:08:14;9.50;91.90
76172;DHT22;64929;51.178;4.138;2023-04-12T01:10:42;9.40;91.70
76172;DHT22;64929;51.178;4.138;2023-04-12T01:15:53;9.50;91.40
76172;DHT22;64929;51.178;4.138;2023-04-12T01:18:21;9.50;91.50
76172;DHT22;64929;51.178;4.138;2023-04-12T01:21:15;9.50;91.40
76172;DHT22;64929;51.178;4.138;2023-04-12T01:26:41;9.50;92.00
76172;DHT22;64929;51.178;4.138;2023-04-12T01:29:11;9.50;91.70
76172;DHT22;64929;51.178;4.138;2023-04-12T01:31:52;9.50;91.70
76172;DHT22;64929;51.178;4.138;2023-04-12T01:34:20;9.40;91.80
76172;DHT22;64929;51.178;4.138;2023-04-12T01:36:47;9.40;92.00
76172;DHT22;64929;51.178;4.138;2023-04-12T01:39:13;9.40;92.10
76172;DHT22;64929;51.178;4.138;2023-04-12T01:41:40;9.40;91.90
76172;DHT22;64929;51.178;4.138;2023-04-12T01:44:16;9.20;92.30
76172;DHT22;64929;51.178;4.138;2023-04-12T01:46:44;9.30;92.40
76172;DHT22;64929;51.178;4.138;2023-04-12T01:49:12;9.30;92.30
76172;DHT22;64929;51.178;4.138;2023-04-12T01:51:48;9.30;92.40
76172;DHT22;64929;51.178;4.138;2023-04-12T01:54:22;9.40;92.30
76172;DHT22;64929;51.178;4.138;2023-04-12T01:56:58;9.40;92.00
76172;DHT22;64929;51.178;4.138;2023-04-12T01:59:50;9.30;92.20
76172;DHT22;64929;51.178;4.138;2023-04-12T02:02:18;9.30;92.30
76172;DHT22;64929;51.178;4.138;2023-04-12T02:04:44;9.40;92.40
76172;DHT22;64929;51.178;4.138;2023-04-12T02:07:11;9.40;92.40
76172;DHT22;64929;51.178;4.138;2023-04-12T02:09:38;9.40;92.40
76172;DHT22;64929;51.178;4.138;2023-04-12T02:12:06;9.30;92.50
76172;DHT22;64929;51.178;4.138;2023-04-12T02:14:32;9.50;92.60
76172;DHT22;64929;51.178;4.138;2023-04-12T02:16:58;9.40;92.70
76172;DHT22;64929;51.178;4.138;2023-04-12T02:19:26;9.40;92.90
76172;DHT22;64929;51.178;4.138;2023-04-12T02:21:52;9.30;93.00
76172;DHT22;64929;51.178;4.138;2023-04-12T02:24:18;9.30;93.20
76172;DHT22;64929;51.178;4.138;2023-04-12T02:26:44;9.30;92.70
76172;DHT22;64929;51.178;4.138;2023-04-12T02:29:11;9.40;92.90
76172;DHT22;64929;51.178;4.138;2023-04-12T02:31:36;9.40;93.20
76172;DHT22;64929;51.178;4.138;2023-04-12T02:34:03;9.40;93.10
76172;DHT22;64929;51.178;4.138;2023-04-12T02:36:29;9.40;93.10
76172;DHT22;64929;51.178;4.138;2023-04-12T02:38:56;9.40;92.90
76172;DHT22;64929;51.178;4.138;2023-04-12T02:41:22;9.40;92.90
76172;DHT22;64929;51.178;4.138;2023-04-12T02:43:48;9.40;93.20
76172;DHT22;64929;51.178;4.138;2023-04-12T02:46:24;9.40;93.50
76172;DHT22;64929;51.178;4.138;2023-04-12T02:48:51;9.50;93.10
76172;DHT22;64929;51.178;4.138;2023-04-12T02:51:17;9.50;93.10
76172;DHT22;64929;51.178;4.138;2023-04-12T02:53:43;9.60;93.30
76172;DHT22;64929;51.178;4.138;2023-04-12T02:56:08;9.60;93.10
76172;DHT22;64929;51.178;4.138;2023-04-12T02:58:35;9.50;93.50
76172;DHT22;64929;51.178;4.138;2023-04-12T03:01:01;9.50;93.20
76172;DHT22;64929;51.178;4.138;2023-04-12T03:03:27;9.50;93.30
76172;DHT22;64929;51.178;4.138;2023-04-12T03:05:54;9.50;93.20
76172;DHT22;64929;51.178;4.138;2023-04-12T03:08:20;9.60;93.30
76172;DHT22;64929;51.178;4.138;2023-04-12T03:10:46;9.60;93.30
76172;DHT22;64929;51.178;4.138;2023-04-12T03:13:12;9.50;93.40
76172;DHT22;64929;51.178;4.138;2023-04-12T03:15:38;9.60;93.40
76172;DHT22;64929;51.178;4.138;2023-04-12T03:18:03;9.50;93.60
76172;DHT22;64929;51.178;4.138;2023-04-12T03:20:29;9.50;93.60
76172;DHT22;64929;51.178;4.138;2023-04-12T03:22:55;9.60;93.60
76172;DHT22;64929;51.178;4.138;2023-04-12T03:25:21;9.60;93.70
76172;DHT22;64929;51.178;4.138;2023-04-12T03:27:46;9.60;93.50
76172;DHT22;64929;51.178;4.138;2023-04-12T03:30:12;9.50;93.80
76172;DHT22;64929;51.178;4.138;2023-04-12T03:32:39;9.50;94.20
76172;DHT22;64929;51.178;4.138;2023-04-12T03:35:06;9.60;94.00
76172;DHT22;64929;51.178;4.138;2023-04-12T03:37:32;9.60;93.70
76172;DHT22;64929;51.178;4.138;2023-04-12T03:39:58;9.60;93.90
76172;DHT22;64929;51.178;4.138;2023-04-12T03:42:25;9.60;93.80
76172;DHT22;64929;51.178;4.138;2023-04-12T03:44:51;9.70;93.70
76172;DHT22;64929;51.178;4.138;2023-04-12T03:47:18;9.60;93.90
76172;DHT22;64929;51.178;4.138;2023-04-12T03:49:45;9.70;93.80
76172;DHT22;64929;51.178;4.138;2023-04-12T03:52:11;9.70;94.00
76172;DHT22;64929;51.178;4.138;2023-04-12T03:54:37;9.60;93.90
76172;DHT22;64929;51.178;4.138;2023-04-12T03:57:02;9.60;94.10
76172;DHT22;64929;51.178;4.138;2023-04-12T03:59:28;9.50;94.10
76172;DHT22;64929;51.178;4.138;2023-04-12T04:01:55;9.70;94.00
76172;DHT22;64929;51.178;4.138;2023-04-12T04:04:22;9.60;93.90
76172;DHT22;64929;51.178;4.138;2023-04-12T04:06:48;9.60;94.20
76172;DHT22;64929;51.178;4.138;2023-04-12T04:09:14;9.80;93.90
76172;DHT22;64929;51.178;4.138;2023-04-12T04:11:40;9.70;93.70
76172;DHT22;64929;51.178;4.138;2023-04-12T04:14:06;9.80;93.90
76172;DHT22;64929;51.178;4.138;2023-04-12T04:16:32;9.80;93.60
76172;DHT22;64929;51.178;4.138;2023-04-12T04:18:58;9.70;93.90
76172;DHT22;64929;51.178;4.138;2023-04-12T04:21:24;9.80;93.90
76172;DHT22;64929;51.178;4.138;2023-04-12T04:23:51;9.70;94.00
76172;DHT22;64929;51.178;4.138;2023-04-12T04:26:17;9.70;94.20
76172;DHT22;64929;51.178;4.138;2023-04-12T04:28:43;9.70;94.40
76172;DHT22;64929;51.178;4.138;2023-04-12T04:31:12;9.70;94.20
76172;DHT22;64929;51.178;4.138;2023-04-12T04:33:38;9.80;94.00
76172;DHT22;64929;51.178;4.138;2023-04-12T04:36:05;9.90;94.00
76172;DHT22;64929;51.178;4.138;2023-04-12T04:38:32;10.00;93.80
76172;DHT22;64929;51.178;4.138;2023-04-12T04:40:59;10.00;93.90
76172;DHT22;64929;51.178;4.138;2023-04-12T04:43:28;10.00;93.80
76172;DHT22;64929;51.178;4.138;2023-04-12T04:45:55;10.10;93.40
76172;DHT22;64929;51.178;4.138;2023-04-12T04:48:25;10.00;93.60
76172;DHT22;64929;51.178;4.138;2023-04-12T04:50:51;10.00;93.80
76172;DHT22;64929;51.178;4.138;2023-04-12T04:53:20;10.00;93.60
76172;DHT22;64929;51.178;4.138;2023-04-12T04:55:46;10.10;93.20
76172;DHT22;64929;51.178;4.138;2023-04-12T04:58:13;10.30;92.70
76172;DHT22;64929;51.178;4.138;2023-04-12T05:00:38;10.40;92.30
76172;DHT22;64929;51.178;4.138;2023-04-12T05:03:04;10.40;92.20
76172;DHT22;64929;51.178;4.138;2023-04-12T05:05:30;10.30;92.30
76172;DHT22;64929;51.178;4.138;2023-04-12T05:07:56;10.40;92.10
76172;DHT22;64929;51.178;4.138;2023-04-12T05:10:22;10.30;92.20
76172;DHT22;64929;51.178;4.138;2023-04-12T05:12:48;10.20;92.70
76172;DHT22;64929;51.178;4.138;2023-04-12T05:15:14;10.20;92.50
76172;DHT22;64929;51.178;4.138;2023-04-12T05:17:40;10.40;92.20
76172;DHT22;64929;51.178;4.138;2023-04-12T05:20:06;10.30;92.20
76172;DHT22;64929;51.178;4.138;2023-04-12T05:22:34;10.30;92.50
76172;DHT22;64929;51.178;4.138;2023-04-12T05:25:00;10.30;92.20
76172;DHT22;64929;51.178;4.138;2023-04-12T05:27:26;10.30;92.20
76172;DHT22;64929;51.178;4.138;2023-04-12T05:29:55;10.50;92.00
76172;DHT22;64929;51.178;4.138;2023-04-12T05:32:21;10.50;91.80
76172;DHT22;64929;51.178;4.138;2023-04-12T05:34:47;10.40;92.40
76172;DHT22;64929;51.178;4.138;2023-04-12T05:37:12;10.30;92.70
76172;DHT22;64929;51.178;4.138;2023-04-12T05:39:38;10.30;92.10
76172;DHT22;64929;51.178;4.138;2023-04-12T05:42:04;10.50;91.80
76172;DHT22;64929;51.178;4.138;2023-04-12T05:44:29;10.50;91.60
76172;DHT22;64929;51.178;4.138;2023-04-12T05:46:55;10.40;91.80
76172;DHT22;64929;51.178;4.138;2023-04-12T05:49:21;10.30;92.10
76172;DHT22;64929;51.178;4.138;2023-04-12T05:51:46;10.40;91.80
76172;DHT22;64929;51.178;4.138;2023-04-12T05:54:12;10.30;91.90
76172;DHT22;64929;51.178;4.138;2023-04-12T05:56:38;10.50;91.60
76172;DHT22;64929;51.178;4.138;2023-04-12T05:59:04;10.50;91.70
76172;DHT22;64929;51.178;4.138;2023-04-12T06:01:30;10.60;91.40
76172;DHT22;64929;51.178;4.138;2023-04-12T06:04:01;10.70;91.30
76172;DHT22;64929;51.178;4.138;2023-04-12T06:06:27;10.60;91.20
76172;DHT22;64929;51.178;4.138;2023-04-12T06:08:55;10.70;91.30
76172;DHT22;64929;51.178;4.138;2023-04-12T06:11:22;10.70;90.90
76172;DHT22;64929;51.178;4.138;2023-04-12T06:13:48;10.70;91.10
76172;DHT22;64929;51.178;4.138;2023-04-12T06:16:14;10.70;91.10
76172;DHT22;64929;51.178;4.138;2023-04-12T06:18:40;10.70;91.20
76172;DHT22;64929;51.178;4.138;2023-04-12T06:21:06;10.60;91.50
76172;DHT22;64929;51.178;4.138;2023-04-12T06:23:31;10.60;91.40
76172;DHT22;64929;51.178;4.138;2023-04-12T06:25:57;10.80;91.00
76172;DHT22;64929;51.178;4.138;2023-04-12T06:28:23;10.90;90.90
76172;DHT22;64929;51.178;4.138;2023-04-12T06:30:48;10.90;90.80
76172;DHT22;64929;51.178;4.138;2023-04-12T06:33:14;10.70;90.90
76172;DHT22;64929;51.178;4.138;2023-04-12T06:35:40;10.90;90.70
76172;DHT22;64929;51.178;4.138;2023-04-12T06:38:06;10.90;90.80
76172;DHT22;64929;51.178;4.138;2023-04-12T06:40:31;10.90;90.80
76172;DHT22;64929;51.178;4.138;2023-04-12T06:42:57;10.70;90.70
76172;DHT22;64929;51.178;4.138;2023-04-12T06:45:23;10.70;90.40
76172;DHT22;64929;51.178;4.138;2023-04-12T06:47:49;10.70;90.80
76172;DHT22;64929;51.178;4.138;2023-04-12T06:50:14;10.60;90.80
76172;DHT22;64929;51.178;4.138;2023-04-12T06:52:40;10.60;90.80
76172;DHT22;64929;51.178;4.138;2023-04-12T06:55:06;10.70;90.90
76172;DHT22;64929;51.178;4.138;2023-04-12T06:57:32;10.70;90.30
76172;DHT22;64929;51.178;4.138;2023-04-12T06:59:58;10.70;90.20
76172;DHT22;64929;51.178;4.138;2023-04-12T07:02:23;10.60;90.30
76172;DHT22;64929;51.178;4.138;2023-04-12T07:04:52;10.50;90.90
76172;DHT22;64929;51.178;4.138;2023-04-12T07:07:19;10.70;90.40
76172;DHT22;64929;51.178;4.138;2023-04-12T07:09:45;10.50;90.70
76172;DHT22;64929;51.178;4.138;2023-04-12T07:12:12;10.70;90.30
76172;DHT22;64929;51.178;4.138;2023-04-12T07:14:38;10.80;90.90
76172;DHT22;64929;51.178;4.138;2023-04-12T07:17:04;10.80;90.50
76172;DHT22;64929;51.178;4.138;2023-04-12T07:19:30;11.00;90.50
76172;DHT22;64929;51.178;4.138;2023-04-12T07:21:56;10.90;90.50
76172;DHT22;64929;51.178;4.138;2023-04-12T07:24:22;10.90;90.10
76172;DHT22;64929;51.178;4.138;2023-04-12T07:26:48;11.10;90.40
76172;DHT22;64929;51.178;4.138;2023-04-12T07:29:14;11.20;89.60
76172;DHT22;64929;51.178;4.138;2023-04-12T07:31:41;11.30;88.10
76172;DHT22;64929;51.178;4.138;2023-04-12T07:34:07;11.40;87.60
76172;DHT22;64929;51.178;4.138;2023-04-12T07:36:32;11.40;87.00
76172;DHT22;64929;51.178;4.138;2023-04-12T07:38:58;11.30;86.90
76172;DHT22;64929;51.178;4.138;2023-04-12T07:41:24;11.30;87.80
76172;DHT22;64929;51.178;4.138;2023-04-12T07:43:50;11.30;88.30
76172;DHT22;64929;51.178;4.138;2023-04-12T07:46:15;11.40;88.90
76172;DHT22;64929;51.178;4.138;2023-04-12T07:48:42;11.40;87.00
76172;DHT22;64929;51.178;4.138;2023-04-12T07:51:08;11.30;86.80
76172;DHT22;64929;51.178;4.138;2023-04-12T07:53:33;11.40;86.10
76172;DHT22;64929;51.178;4.138;2023-04-12T07:55:59;11.20;86.00
76172;DHT22;64929;51.178;4.138;2023-04-12T07:58:25;11.00;86.90
76172;DHT22;64929;51.178;4.138;2023-04-12T08:00:52;11.00;87.80
76172;DHT22;64929;51.178;4.138;2023-04-12T08:03:18;11.00;85.90
76172;DHT22;64929;51.178;4.138;2023-04-12T08:05:44;11.20;86.20
76172;DHT22;64929;51.178;4.138;2023-04-12T08:08:10;11.30;85.70
76172;DHT22;64929;51.178;4.138;2023-04-12T08:10:36;11.30;85.20
76172;DHT22;64929;51.178;4.138;2023-04-12T08:13:04;11.40;83.40
76172;DHT22;64929;51.178;4.138;2023-04-12T08:15:30;11.20;84.00
76172;DHT22;64929;51.178;4.138;2023-04-12T08:17:55;11.10;83.70
76172;DHT22;64929;51.178;4.138;2023-04-12T08:20:21;11.20;83.80
76172;DHT22;64929;51.178;4.138;2023-04-12T08:22:48;11.10;84.00
76172;DHT22;64929;51.178;4.138;2023-04-12T08:25:14;11.20;81.80
76172;DHT22;64929;51.178;4.138;2023-04-12T08:27:41;11.10;84.00
76172;DHT22;64929;51.178;4.138;2023-04-12T08:30:09;11.20;84.00
76172;DHT22;64929;51.178;4.138;2023-04-12T08:32:35;11.10;84.40
76172;DHT22;64929;51.178;4.138;2023-04-12T08:35:02;10.90;84.10
76172;DHT22;64929;51.178;4.138;2023-04-12T08:37:28;11.00;83.70
76172;DHT22;64929;51.178;4.138;2023-04-12T08:39:54;11.10;83.90
76172;DHT22;64929;51.178;4.138;2023-04-12T08:42:20;11.00;85.60
76172;DHT22;64929;51.178;4.138;2023-04-12T08:44:46;11.00;84.10
76172;DHT22;64929;51.178;4.138;2023-04-12T08:47:12;11.10;84.60
76172;DHT22;64929;51.178;4.138;2023-04-12T08:49:38;10.90;85.50
76172;DHT22;64929;51.178;4.138;2023-04-12T08:52:08;11.00;84.80
76172;DHT22;64929;51.178;4.138;2023-04-12T08:54:35;10.80;84.50
76172;DHT22;64929;51.178;4.138;2023-04-12T08:57:03;11.00;84.80
76172;DHT22;64929;51.178;4.138;2023-04-12T08:59:30;11.10;84.60
76172;DHT22;64929;51.178;4.138;2023-04-12T09:01:57;11.10;83.80
76172;DHT22;64929;51.178;4.138;2023-04-12T09:04:24;11.30;83.00
76172;DHT22;64929;51.178;4.138;2023-04-12T09:06:54;11.40;82.30
76172;DHT22;64929;51.178;4.138;2023-04-12T09:12:07;11.70;80.60
76172;DHT22;64929;51.178;4.138;2023-04-12T09:14:32;11.90;81.50
76172;DHT22;64929;51.178;4.138;2023-04-12T09:16:58;12.10;78.70
76172;DHT22;64929;51.178;4.138;2023-04-12T09:19:34;12.10;78.70
76172;DHT22;64929;51.178;4.138;2023-04-12T09:22:01;12.30;77.20
76172;DHT22;64929;51.178;4.138;2023-04-12T09:24:28;12.40;77.50
76172;DHT22;64929;51.178;4.138;2023-04-12T09:27:04;12.40;77.50
76172;DHT22;64929;51.178;4.138;2023-04-12T09:29:32;12.40;75.90
76172;DHT22;64929;51.178;4.138;2023-04-12T09:32:03;12.30;76.90
76172;DHT22;64929;51.178;4.138;2023-04-12T09:34:30;12.30;76.90
76172;DHT22;64929;51.178;4.138;2023-04-12T09:36:56;12.30;76.80
76172;DHT22;64929;51.178;4.138;2023-04-12T09:39:34;12.20;74.70
76172;DHT22;64929;51.178;4.138;2023-04-12T09:42:06;12.30;73.50
76172;DHT22;64929;51.178;4.138;2023-04-12T09:44:32;12.10;76.00
76172;DHT22;64929;51.178;4.138;2023-04-12T09:46:59;12.10;74.60
76172;DHT22;64929;51.178;4.138;2023-04-12T09:49:43;12.10;74.70
76172;DHT22;64929;51.178;4.138;2023-04-12T09:52:10;12.20;75.80
76172;DHT22;64929;51.178;4.138;2023-04-12T09:54:38;12.10;74.70
76172;DHT22;64929;51.178;4.138;2023-04-12T09:57:06;12.30;73.80
76172;DHT22;64929;51.178;4.138;2023-04-12T09:59:36;12.50;72.10
76172;DHT22;64929;51.178;4.138;2023-04-12T10:02:14;12.40;70.50
76172;DHT22;64929;51.178;4.138;2023-04-12T10:04:50;12.30;70.40
76172;DHT22;64929;51.178;4.138;2023-04-12T10:07:22;12.00;70.20
76172;DHT22;64929;51.178;4.138;2023-04-12T10:09:53;11.90;71.10
76172;DHT22;64929;51.178;4.138;2023-04-12T10:12:23;12.10;72.60
76172;DHT22;64929;51.178;4.138;2023-04-12T10:14:50;12.00;73.00
76172;DHT22;64929;51.178;4.138;2023-04-12T10:17:18;12.10;74.10
76172;DHT22;64929;51.178;4.138;2023-04-12T10:19:44;12.20;72.90
76172;DHT22;64929;51.178;4.138;2023-04-12T10:22:12;12.30;74.20
76172;DHT22;64929;51.178;4.138;2023-04-12T10:24:37;12.40;72.40
76172;DHT22;64929;51.178;4.138;2023-04-12T10:27:04;12.60;72.60
76172;DHT22;64929;51.178;4.138;2023-04-12T10:32:23;12.50;70.00
76172;DHT22;64929;51.178;4.138;2023-04-12T10:34:51;12.30;65.30
76172;DHT22;64929;51.178;4.138;2023-04-12T10:37:17;12.30;66.70
76172;DHT22;64929;51.178;4.138;2023-04-12T10:39:57;12.40;66.40
76172;DHT22;64929;51.178;4.138;2023-04-12T10:42:32;12.40;65.70
76172;DHT22;64929;51.178;4.138;2023-04-12T10:50:31;12.80;62.30
76172;DHT22;64929;51.178;4.138;2023-04-12T10:55:41;12.80;62.70
76172;DHT22;64929;51.178;4.138;2023-04-12T10:58:08;12.80;63.50
76172;DHT22;64929;51.178;4.138;2023-04-12T11:03:26;13.00;63.70
76172;DHT22;64929;51.178;4.138;2023-04-12T11:08:22;13.20;64.60
76172;DHT22;64929;51.178;4.138;2023-04-12T11:10:49;13.20;60.60
76172;DHT22;64929;51.178;4.138;2023-04-12T11:13:15;13.20;62.70
76172;DHT22;64929;51.178;4.138;2023-04-12T11:15:41;13.50;62.20
76172;DHT22;64929;51.178;4.138;2023-04-12T11:18:07;13.60;60.20
76172;DHT22;64929;51.178;4.138;2023-04-12T11:20:33;13.10;60.40
76172;DHT22;64929;51.178;4.138;2023-04-12T11:22:59;12.70;61.80
76172;DHT22;64929;51.178;4.138;2023-04-12T11:25:25;11.60;69.30
76172;DHT22;64929;51.178;4.138;2023-04-12T11:27:51;10.90;76.10
76172;DHT22;64929;51.178;4.138;2023-04-12T11:30:19;10.40;77.30
76172;DHT22;64929;51.178;4.138;2023-04-12T11:32:46;10.20;82.00
76172;DHT22;64929;51.178;4.138;2023-04-12T11:35:14;9.90;81.90
76172;DHT22;64929;51.178;4.138;2023-04-12T11:37:41;10.00;83.70
76172;DHT22;64929;51.178;4.138;2023-04-12T11:40:08;10.20;81.80
76172;DHT22;64929;51.178;4.138;2023-04-12T11:42:34;10.40;81.10
76172;DHT22;64929;51.178;4.138;2023-04-12T11:45:00;10.50;80.00
76172;DHT22;64929;51.178;4.138;2023-04-12T11:47:28;10.80;80.80
76172;DHT22;64929;51.178;4.138;2023-04-12T11:49:55;10.80;78.20
76172;DHT22;64929;51.178;4.138;2023-04-12T11:52:28;11.20;80.00
76172;DHT22;64929;51.178;4.138;2023-04-12T11:55:00;11.30;75.70
76172;DHT22;64929;51.178;4.138;2023-04-12T11:57:27;11.40;78.20
76172;DHT22;64929;51.178;4.138;2023-04-12T11:59:59;11.60;76.50
76172;DHT22;64929;51.178;4.138;2023-04-12T12:02:33;11.40;76.40
76172;DHT22;64929;51.178;4.138;2023-04-12T12:05:05;11.50;78.20
76172;DHT22;64929;51.178;4.138;2023-04-12T12:07:32;11.80;80.20
76172;DHT22;64929;51.178;4.138;2023-04-12T12:10:01;11.90;78.30
76172;DHT22;64929;51.178;4.138;2023-04-12T12:12:27;11.90;78.10
76172;DHT22;64929;51.178;4.138;2023-04-12T12:14:53;12.10;74.00
76172;DHT22;64929;51.178;4.138;2023-04-12T12:17:26;12.60;72.90
76172;DHT22;64929;51.178;4.138;2023-04-12T12:19:59;12.60;68.90
76172;DHT22;64929;51.178;4.138;2023-04-12T12:22:29;12.70;69.40
76172;DHT22;64929;51.178;4.138;2023-04-12T12:24:56;12.90;67.80
76172;DHT22;64929;51.178;4.138;2023-04-12T12:27:35;13.00;68.50
76172;DHT22;64929;51.178;4.138;2023-04-12T12:30:03;13.00;66.90
76172;DHT22;64929;51.178;4.138;2023-04-12T12:32:33;13.30;65.90
76172;DHT22;64929;51.178;4.138;2023-04-12T12:35:06;13.60;65.30
76172;DHT22;64929;51.178;4.138;2023-04-12T12:37:33;13.80;62.90
76172;DHT22;64929;51.178;4.138;2023-04-12T12:40:17;13.50;62.00
76172;DHT22;64929;51.178;4.138;2023-04-12T12:42:48;13.20;62.40
76172;DHT22;64929;51.178;4.138;2023-04-12T12:45:16;13.30;63.20
76172;DHT22;64929;51.178;4.138;2023-04-12T12:47:51;13.40;62.40
76172;DHT22;64929;51.178;4.138;2023-04-12T12:50:18;13.20;63.70
76172;DHT22;64929;51.178;4.138;2023-04-12T12:52:45;12.90;63.60
76172;DHT22;64929;51.178;4.138;2023-04-12T12:55:15;12.40;69.50
76172;DHT22;64929;51.178;4.138;2023-04-12T12:57:45;11.60;76.10
76172;DHT22;64929;51.178;4.138;2023-04-12T13:00:12;11.00;81.20
76172;DHT22;64929;51.178;4.138;2023-04-12T13:02:42;10.90;83.20
76172;DHT22;64929;51.178;4.138;2023-04-12T13:05:09;10.80;81.30
76172;DHT22;64929;51.178;4.138;2023-04-12T13:07:35;10.20;81.30
76172;DHT22;64929;51.178;4.138;2023-04-12T13:10:01;9.90;82.10
76172;DHT22;64929;51.178;4.138;2023-04-12T13:12:27;9.90;82.50
76172;DHT22;64929;51.178;4.138;2023-04-12T13:14:53;9.90;83.60
76172;DHT22;64929;51.178;4.138;2023-04-12T13:17:19;10.10;83.60
76172;DHT22;64929;51.178;4.138;2023-04-12T13:19:45;10.40;82.00
76172;DHT22;64929;51.178;4.138;2023-04-12T13:22:12;10.50;84.60
76172;DHT22;64929;51.178;4.138;2023-04-12T13:24:38;10.60;83.20
76172;DHT22;64929;51.178;4.138;2023-04-12T13:27:03;10.90;83.20
76172;DHT22;64929;51.178;4.138;2023-04-12T13:29:30;11.10;79.50
76172;DHT22;64929;51.178;4.138;2023-04-12T13:31:55;11.30;81.20
76172;DHT22;64929;51.178;4.138;2023-04-12T13:34:21;11.40;76.40
76172;DHT22;64929;51.178;4.138;2023-04-12T13:36:48;11.40;75.30
76172;DHT22;64929;51.178;4.138;2023-04-12T13:39:13;11.20;74.30
76172;DHT22;64929;51.178;4.138;2023-04-12T13:41:39;11.30;76.30
76172;DHT22;64929;51.178;4.138;2023-04-12T13:44:05;11.60;76.20
76172;DHT22;64929;51.178;4.138;2023-04-12T13:46:31;11.80;76.30
76172;DHT22;64929;51.178;4.138;2023-04-12T13:48:56;12.10;74.40
76172;DHT22;64929;51.178;4.138;2023-04-12T13:51:22;12.00;71.20
76172;DHT22;64929;51.178;4.138;2023-04-12T13:53:48;12.00;70.40
76172;DHT22;64929;51.178;4.138;2023-04-12T13:56:14;12.20;71.70
76172;DHT22;64929;51.178;4.138;2023-04-12T13:58:41;12.40;68.90
76172;DHT22;64929;51.178;4.138;2023-04-12T14:01:07;12.50;68.50
76172;DHT22;64929;51.178;4.138;2023-04-12T14:03:33;12.60;69.20
76172;DHT22;64929;51.178;4.138;2023-04-12T14:05:59;12.50;66.90
76172;DHT22;64929;51.178;4.138;2023-04-12T14:08:26;12.30;64.30
76172;DHT22;64929;51.178;4.138;2023-04-12T14:10:52;12.40;64.80
76172;DHT22;64929;51.178;4.138;2023-04-12T14:13:20;12.50;68.70
76172;DHT22;64929;51.178;4.138;2023-04-12T14:15:46;12.60;66.80
76172;DHT22;64929;51.178;4.138;2023-04-12T14:18:12;12.90;67.90
76172;DHT22;64929;51.178;4.138;2023-04-12T14:20:37;13.50;69.30
76172;DHT22;64929;51.178;4.138;2023-04-12T14:23:03;14.20;61.20
76172;DHT22;64929;51.178;4.138;2023-04-12T14:25:29;14.80;61.10
76172;DHT22;64929;51.178;4.138;2023-04-12T14:27:55;16.00;56.90
76172;DHT22;64929;51.178;4.138;2023-04-12T14:30:21;17.60;52.70
76172;DHT22;64929;51.178;4.138;2023-04-12T14:32:46;18.10;49.80
76172;DHT22;64929;51.178;4.138;2023-04-12T14:35:13;17.90;46.70
76172;DHT22;64929;51.178;4.138;2023-04-12T14:37:39;17.10;48.30
76172;DHT22;64929;51.178;4.138;2023-04-12T14:40:06;16.70;48.90
76172;DHT22;64929;51.178;4.138;2023-04-12T14:42:32;16.40;49.70
76172;DHT22;64929;51.178;4.138;2023-04-12T14:44:59;15.90;50.50
76172;DHT22;64929;51.178;4.138;2023-04-12T14:47:29;17.00;48.00
76172;DHT22;64929;51.178;4.138;2023-04-12T14:49:55;17.40;44.30
76172;DHT22;64929;51.178;4.138;2023-04-12T14:52:21;16.60;45.60
76172;DHT22;64929;51.178;4.138;2023-04-12T14:54:47;17.20;42.40
76172;DHT22;64929;51.178;4.138;2023-04-12T14:57:12;17.70;43.30
76172;DHT22;64929;51.178;4.138;2023-04-12T14:59:39;18.50;41.60
76172;DHT22;64929;51.178;4.138;2023-04-12T15:02:04;19.40;40.20
76172;DHT22;64929;51.178;4.138;2023-04-12T15:04:31;19.50;39.00
76172;DHT22;64929;51.178;4.138;2023-04-12T15:06:56;18.80;37.70
76172;DHT22;64929;51.178;4.138;2023-04-12T15:09:22;18.80;38.00
76172;DHT22;64929;51.178;4.138;2023-04-12T15:11:49;19.00;37.00
76172;DHT22;64929;51.178;4.138;2023-04-12T15:14:16;18.50;38.40
76172;DHT22;64929;51.178;4.138;2023-04-12T15:16:45;18.60;38.10
76172;DHT22;64929;51.178;4.138;2023-04-12T15:19:14;18.50;37.70
76172;DHT22;64929;51.178;4.138;2023-04-12T15:21:40;18.20;38.10
76172;DHT22;64929;51.178;4.138;2023-04-12T15:24:08;18.60;39.00
76172;DHT22;64929;51.178;4.138;2023-04-12T15:26:33;19.10;38.80
76172;DHT22;64929;51.178;4.138;2023-04-12T15:29:01;19.50;37.50
76172;DHT22;64929;51.178;4.138;2023-04-12T15:31:27;19.50;37.80
76172;DHT22;64929;51.178;4.138;2023-04-12T15:33:52;18.40;38.90
76172;DHT22;64929;51.178;4.138;2023-04-12T15:36:18;17.30;40.60
76172;DHT22;64929;51.178;4.138;2023-04-12T15:38:44;16.10;43.20
76172;DHT22;64929;51.178;4.138;2023-04-12T15:41:11;15.40;46.80
76172;DHT22;64929;51.178;4.138;2023-04-12T15:43:37;14.40;47.70
76172;DHT22;64929;51.178;4.138;2023-04-12T15:46:03;14.00;50.30
76172;DHT22;64929;51.178;4.138;2023-04-12T15:48:29;14.50;49.30
76172;DHT22;64929;51.178;4.138;2023-04-12T15:50:55;14.80;47.00
76172;DHT22;64929;51.178;4.138;2023-04-12T15:53:23;14.80;44.40
76172;DHT22;64929;51.178;4.138;2023-04-12T15:55:49;14.50;45.50
76172;DHT22;64929;51.178;4.138;2023-04-12T15:58:26;14.90;44.70
76172;DHT22;64929;51.178;4.138;2023-04-12T16:00:52;14.80;44.10